sensor_id;sensor_type;location;lat;lon;timestamp;temperature;humidity
63875;DHT22;51595;24.180;-110.296;2022-12-15T00:00:52;18.00;99.90
63875;DHT22;51595;24.180;-110.296;2022-12-15T00:03:37;18.00;99.90
63875;DHT22;51595;24.180;-110.296;2022-12-15T00:06:22;17.90;99.90
63875;DHT22;51595;24.180;-110.296;2022-12-15T00:09:06;17.70;99.90
63875;DHT22;51595;24.180;-110.296;2022-12-15T00:11:51;17.70;99.90
63875;DHT22;51595;24.180;-110.296;2022-12-15T00:14:36;17.70;99.90
63875;DHT22;51595;24.180;-110.296;2022-12-15T00:17:20;17.60;99.90
63875;DHT22;51595;24.180;-110.296;2022-12-15T00:20:06;17.60;99.90
63875;DHT22;51595;24.180;-110.296;2022-12-15T00:22:50;17.60;99.90
63875;DHT22;51595;24.180;-110.296;2022-12-15T00:25:35;17.50;99.90
63875;DHT22;51595;24.180;-110.296;2022-12-15T00:28:25;17.50;99.90
63875;DHT22;51595;24.180;-110.296;2022-12-15T00:31:09;17.40;99.90
63875;DHT22;51595;24.180;-110.296;2022-12-15T00:33:54;17.40;99.90
63875;DHT22;51595;24.180;-110.296;2022-12-15T00:36:38;17.40;99.90
63875;DHT22;51595;24.180;-110.296;2022-12-15T00:39:24;17.30;99.90
63875;DHT22;51595;24.180;-110.296;2022-12-15T00:41:51;17.40;99.90
63875;DHT22;51595;24.180;-110.296;2022-12-15T00:44:18;17.30;99.90
63875;DHT22;51595;24.180;-110.296;2022-12-15T00:46:47;17.30;99.90
63875;DHT22;51595;24.180;-110.296;2022-12-15T00:49:24;17.30;99.90
63875;DHT22;51595;24.180;-110.296;2022-12-15T00:52:09;17.20;99.90
63875;DHT22;51595;24.180;-110.296;2022-12-15T00:54:56;17.30;99.90
63875;DHT22;51595;24.180;-110.296;2022-12-15T00:57:41;17.30;99.90
63875;DHT22;51595;24.180;-110.296;2022-12-15T01:00:26;17.20;99.90
63875;DHT22;51595;24.180;-110.296;2022-12-15T01:03:12;17.20;99.90
63875;DHT22;51595;24.180;-110.296;2022-12-15T01:05:57;17.20;99.90
63875;DHT22;51595;24.180;-110.296;2022-12-15T01:08:44;17.20;99.90
63875;DHT22;51595;24.180;-110.296;2022-12-15T01:11:28;16.10;99.90
63875;DHT22;51595;24.180;-110.296;2022-12-15T01:14:13;17.20;99.90
63875;DHT22;51595;24.180;-110.296;2022-12-15T01:16:58;17.10;99.90
63875;DHT22;51595;24.180;-110.296;2022-12-15T01:19:43;17.10;99.90
63875;DHT22;51595;24.180;-110.296;2022-12-15T01:22:28;17.10;99.90
63875;DHT22;51595;24.180;-110.296;2022-12-15T01:24:54;17.10;99.90
63875;DHT22;51595;24.180;-110.296;2022-12-15T01:27:21;17.10;99.90
63875;DHT22;51595;24.180;-110.296;2022-12-15T01:29:47;17.00;99.90
63875;DHT22;51595;24.180;-110.296;2022-12-15T01:32:14;17.10;99.90
63875;DHT22;51595;24.180;-110.296;2022-12-15T01:34:40;17.10;99.90
63875;DHT22;51595;24.180;-110.296;2022-12-15T01:37:07;17.10;99.90
63875;DHT22;51595;24.180;-110.296;2022-12-15T01:39:33;17.00;99.90
63875;DHT22;51595;24.180;-110.296;2022-12-15T01:42:26;17.00;99.90
63875;DHT22;51595;24.180;-110.296;2022-12-15T01:47:56;17.00;99.90
63875;DHT22;51595;24.180;-110.296;2022-12-15T01:50:24;17.10;99.90
63875;DHT22;51595;24.180;-110.296;2022-12-15T01:52:52;17.10;99.90
63875;DHT22;51595;24.180;-110.296;2022-12-15T01:55:21;17.10;99.90
63875;DHT22;51595;24.180;-110.296;2022-12-15T01:57:54;17.10;99.90
63875;DHT22;51595;24.180;-110.296;2022-12-15T02:00:21;17.00;99.90
63875;DHT22;51595;24.180;-110.296;2022-12-15T02:02:48;17.00;99.90
63875;DHT22;51595;24.180;-110.296;2022-12-15T02:05:15;17.10;99.90
63875;DHT22;51595;24.180;-110.296;2022-12-15T02:07:43;17.00;99.90
63875;DHT22;51595;24.180;-110.296;2022-12-15T02:10:10;17.10;99.90
63875;DHT22;51595;24.180;-110.296;2022-12-15T02:21:01;17.00;99.90
63875;DHT22;51595;24.180;-110.296;2022-12-15T02:35:30;16.90;99.90
63875;DHT22;51595;24.180;-110.296;2022-12-15T02:37:58;16.90;99.90
63875;DHT22;51595;24.180;-110.296;2022-12-15T02:40:26;16.90;99.90
63875;DHT22;51595;24.180;-110.296;2022-12-15T02:42:54;16.90;99.90
63875;DHT22;51595;24.180;-110.296;2022-12-15T02:45:50;16.90;99.90
63875;DHT22;51595;24.180;-110.296;2022-12-15T02:48:41;16.80;99.90
63875;DHT22;51595;24.180;-110.296;2022-12-15T02:51:38;16.90;99.90
63875;DHT22;51595;24.180;-110.296;2022-12-15T02:57:23;16.80;99.90
63875;DHT22;51595;24.180;-110.296;2022-12-15T03:00:04;16.70;99.90
63875;DHT22;51595;24.180;-110.296;2022-12-15T03:02:34;16.60;99.90
63875;DHT22;51595;24.180;-110.296;2022-12-15T03:05:04;16.60;99.90
63875;DHT22;51595;24.180;-110.296;2022-12-15T03:07:31;16.60;99.90
63875;DHT22;51595;24.180;-110.296;2022-12-15T03:10:00;16.60;99.90
63875;DHT22;51595;24.180;-110.296;2022-12-15T03:12:27;16.60;99.90
63875;DHT22;51595;24.180;-110.296;2022-12-15T03:17:23;16.50;99.90
63875;DHT22;51595;24.180;-110.296;2022-12-15T03:22:22;16.30;99.90
63875;DHT22;51595;24.180;-110.296;2022-12-15T03:27:16;16.40;99.90
63875;DHT22;51595;24.180;-110.296;2022-12-15T03:29:42;16.40;99.90
63875;DHT22;51595;24.180;-110.296;2022-12-15T03:32:08;16.40;99.90
63875;DHT22;51595;24.180;-110.296;2022-12-15T03:34:37;17.00;99.90
63875;DHT22;51595;24.180;-110.296;2022-12-15T03:37:04;16.50;99.90
63875;DHT22;51595;24.180;-110.296;2022-12-15T03:41:57;16.60;99.90
63875;DHT22;51595;24.180;-110.296;2022-12-15T03:44:25;16.50;99.90
63875;DHT22;51595;24.180;-110.296;2022-12-15T03:46:53;15.90;99.90
63875;DHT22;51595;24.180;-110.296;2022-12-15T03:49:21;16.40;99.90
63875;DHT22;51595;24.180;-110.296;2022-12-15T03:51:47;16.30;99.90
63875;DHT22;51595;24.180;-110.296;2022-12-15T03:54:14;16.30;99.90
63875;DHT22;51595;24.180;-110.296;2022-12-15T03:56:40;16.30;99.90
63875;DHT22;51595;24.180;-110.296;2022-12-15T03:59:09;16.20;99.90
63875;DHT22;51595;24.180;-110.296;2022-12-15T04:01:36;16.30;99.90
63875;DHT22;51595;24.180;-110.296;2022-12-15T04:04:03;16.30;99.90
63875;DHT22;51595;24.180;-110.296;2022-12-15T04:06:30;16.30;99.90
63875;DHT22;51595;24.180;-110.296;2022-12-15T04:11:26;16.50;99.90
63875;DHT22;51595;24.180;-110.296;2022-12-15T04:16:19;16.50;99.90
63875;DHT22;51595;24.180;-110.296;2022-12-15T04:18:46;16.60;99.90
63875;DHT22;51595;24.180;-110.296;2022-12-15T04:21:32;16.60;99.90
63875;DHT22;51595;24.180;-110.296;2022-12-15T04:26:43;16.50;99.90
63875;DHT22;51595;24.180;-110.296;2022-12-15T04:29:28;16.30;99.90
63875;DHT22;51595;24.180;-110.296;2022-12-15T04:32:12;16.40;99.90
63875;DHT22;51595;24.180;-110.296;2022-12-15T04:34:57;16.40;99.90
63875;DHT22;51595;24.180;-110.296;2022-12-15T04:37:42;16.50;99.90
63875;DHT22;51595;24.180;-110.296;2022-12-15T04:40:27;16.60;99.90
63875;DHT22;51595;24.180;-110.296;2022-12-15T04:43:12;16.30;99.90
63875;DHT22;51595;24.180;-110.296;2022-12-15T04:45:56;16.30;99.90
63875;DHT22;51595;24.180;-110.296;2022-12-15T04:48:41;16.20;99.90
63875;DHT22;51595;24.180;-110.296;2022-12-15T04:51:27;16.20;99.90
63875;DHT22;51595;24.180;-110.296;2022-12-15T04:54:11;16.20;99.90
63875;DHT22;51595;24.180;-110.296;2022-12-15T04:56:56;16.20;99.90
63875;DHT22;51595;24.180;-110.296;2022-12-15T04:59:41;16.20;99.90
63875;DHT22;51595;24.180;-110.296;2022-12-15T05:02:25;16.20;99.90
63875;DHT22;51595;24.180;-110.296;2022-12-15T05:05:10;16.20;99.90
63875;DHT22;51595;24.180;-110.296;2022-12-15T05:07:57;16.60;99.90
63875;DHT22;51595;24.180;-110.296;2022-12-15T05:10:42;16.60;99.90
63875;DHT22;51595;24.180;-110.296;2022-12-15T05:13:26;16.40;99.90
63875;DHT22;51595;24.180;-110.296;2022-12-15T05:16:11;16.50;99.90
63875;DHT22;51595;24.180;-110.296;2022-12-15T05:18:56;16.50;99.90
63875;DHT22;51595;24.180;-110.296;2022-12-15T05:21:40;16.50;99.90
63875;DHT22;51595;24.180;-110.296;2022-12-15T05:24:25;16.40;99.90
63875;DHT22;51595;24.180;-110.296;2022-12-15T05:27:09;16.30;99.90
63875;DHT22;51595;24.180;-110.296;2022-12-15T05:29:54;16.10;99.90
63875;DHT22;51595;24.180;-110.296;2022-12-15T05:32:39;16.20;99.90
63875;DHT22;51595;24.180;-110.296;2022-12-15T05:35:05;16.20;99.90
63875;DHT22;51595;24.180;-110.296;2022-12-15T05:37:36;16.10;99.90
63875;DHT22;51595;24.180;-110.296;2022-12-15T05:40:06;16.40;99.90
63875;DHT22;51595;24.180;-110.296;2022-12-15T05:42:32;16.40;99.90
63875;DHT22;51595;24.180;-110.296;2022-12-15T05:44:59;16.30;99.90
63875;DHT22;51595;24.180;-110.296;2022-12-15T05:47:25;16.30;99.90
63875;DHT22;51595;24.180;-110.296;2022-12-15T05:49:52;16.30;99.90
63875;DHT22;51595;24.180;-110.296;2022-12-15T05:52:19;16.40;99.90
63875;DHT22;51595;24.180;-110.296;2022-12-15T05:54:45;16.50;99.90
63875;DHT22;51595;24.180;-110.296;2022-12-15T05:57:12;16.50;99.90
63875;DHT22;51595;24.180;-110.296;2022-12-15T05:59:38;16.50;99.90
63875;DHT22;51595;24.180;-110.296;2022-12-15T06:02:05;16.70;99.90
63875;DHT22;51595;24.180;-110.296;2022-12-15T06:04:31;16.90;99.90
63875;DHT22;51595;24.180;-110.296;2022-12-15T06:06:58;17.00;99.90
63875;DHT22;51595;24.180;-110.296;2022-12-15T06:09:24;16.90;99.90
63875;DHT22;51595;24.180;-110.296;2022-12-15T06:11:51;16.70;99.90
63875;DHT22;51595;24.180;-110.296;2022-12-15T06:14:17;16.70;99.90
63875;DHT22;51595;24.180;-110.296;2022-12-15T06:16:43;17.00;99.90
63875;DHT22;51595;24.180;-110.296;2022-12-15T06:19:10;16.90;99.90
63875;DHT22;51595;24.180;-110.296;2022-12-15T06:21:36;16.90;99.90
63875;DHT22;51595;24.180;-110.296;2022-12-15T06:24:04;16.90;99.90
63875;DHT22;51595;24.180;-110.296;2022-12-15T06:26:33;16.80;99.90
63875;DHT22;51595;24.180;-110.296;2022-12-15T06:29:05;16.80;99.90
63875;DHT22;51595;24.180;-110.296;2022-12-15T06:31:35;16.90;99.90
63875;DHT22;51595;24.180;-110.296;2022-12-15T06:34:07;16.90;99.90
63875;DHT22;51595;24.180;-110.296;2022-12-15T06:36:34;16.90;99.90
63875;DHT22;51595;24.180;-110.296;2022-12-15T06:39:02;16.80;99.90
63875;DHT22;51595;24.180;-110.296;2022-12-15T06:41:29;16.70;99.90
63875;DHT22;51595;24.180;-110.296;2022-12-15T06:43:56;16.80;99.90
63875;DHT22;51595;24.180;-110.296;2022-12-15T06:46:25;16.70;99.90
63875;DHT22;51595;24.180;-110.296;2022-12-15T06:48:51;16.50;99.90
63875;DHT22;51595;24.180;-110.296;2022-12-15T06:51:18;16.40;99.90
63875;DHT22;51595;24.180;-110.296;2022-12-15T06:53:45;16.50;99.90
63875;DHT22;51595;24.180;-110.296;2022-12-15T06:56:19;16.50;99.90
63875;DHT22;51595;24.180;-110.296;2022-12-15T06:58:50;16.60;99.90
63875;DHT22;51595;24.180;-110.296;2022-12-15T07:01:18;16.50;99.90
63875;DHT22;51595;24.180;-110.296;2022-12-15T07:03:45;16.60;99.90
63875;DHT22;51595;24.180;-110.296;2022-12-15T07:06:13;16.60;99.90
63875;DHT22;51595;24.180;-110.296;2022-12-15T07:08:40;16.50;99.90
63875;DHT22;51595;24.180;-110.296;2022-12-15T07:11:09;16.50;99.90
63875;DHT22;51595;24.180;-110.296;2022-12-15T07:13:36;16.40;99.90
63875;DHT22;51595;24.180;-110.296;2022-12-15T07:16:05;16.50;99.90
63875;DHT22;51595;24.180;-110.296;2022-12-15T07:18:32;16.50;99.90
63875;DHT22;51595;24.180;-110.296;2022-12-15T07:21:04;16.50;99.90
63875;DHT22;51595;24.180;-110.296;2022-12-15T07:23:31;16.40;99.90
63875;DHT22;51595;24.180;-110.296;2022-12-15T07:26:00;16.50;99.90
63875;DHT22;51595;24.180;-110.296;2022-12-15T07:28:27;16.40;99.90
63875;DHT22;51595;24.180;-110.296;2022-12-15T07:30:53;16.40;99.90
63875;DHT22;51595;24.180;-110.296;2022-12-15T07:33:20;16.30;99.90
63875;DHT22;51595;24.180;-110.296;2022-12-15T07:35:55;16.50;99.90
63875;DHT22;51595;24.180;-110.296;2022-12-15T07:38:21;16.50;99.90
63875;DHT22;51595;24.180;-110.296;2022-12-15T07:40:48;16.30;99.90
63875;DHT22;51595;24.180;-110.296;2022-12-15T07:43:14;16.30;99.90
63875;DHT22;51595;24.180;-110.296;2022-12-15T07:45:42;16.20;99.90
63875;DHT22;51595;24.180;-110.296;2022-12-15T07:48:09;16.20;99.90
63875;DHT22;51595;24.180;-110.296;2022-12-15T07:50:38;16.10;99.90
63875;DHT22;51595;24.180;-110.296;2022-12-15T07:53:04;15.90;99.90
63875;DHT22;51595;24.180;-110.296;2022-12-15T07:55:31;15.80;99.90
63875;DHT22;51595;24.180;-110.296;2022-12-15T07:57:57;16.00;99.90
63875;DHT22;51595;24.180;-110.296;2022-12-15T08:00:24;16.20;99.90
63875;DHT22;51595;24.180;-110.296;2022-12-15T08:02:50;16.20;99.90
63875;DHT22;51595;24.180;-110.296;2022-12-15T08:05:17;16.40;99.90
63875;DHT22;51595;24.180;-110.296;2022-12-15T08:07:43;16.40;99.90
63875;DHT22;51595;24.180;-110.296;2022-12-15T08:10:09;16.40;99.90
63875;DHT22;51595;24.180;-110.296;2022-12-15T08:12:39;16.50;99.90
63875;DHT22;51595;24.180;-110.296;2022-12-15T08:15:06;16.50;99.90
63875;DHT22;51595;24.180;-110.296;2022-12-15T08:17:33;16.30;99.90
63875;DHT22;51595;24.180;-110.296;2022-12-15T08:19:59;16.60;99.90
63875;DHT22;51595;24.180;-110.296;2022-12-15T08:22:25;16.60;99.90
63875;DHT22;51595;24.180;-110.296;2022-12-15T08:24:52;16.60;99.90
63875;DHT22;51595;24.180;-110.296;2022-12-15T08:27:21;16.80;99.90
63875;DHT22;51595;24.180;-110.296;2022-12-15T08:29:49;16.80;99.90
63875;DHT22;51595;24.180;-110.296;2022-12-15T08:32:15;16.70;99.90
63875;DHT22;51595;24.180;-110.296;2022-12-15T08:34:41;16.60;99.90
63875;DHT22;51595;24.180;-110.296;2022-12-15T08:37:08;16.60;99.90
63875;DHT22;51595;24.180;-110.296;2022-12-15T08:39:35;16.60;99.90
63875;DHT22;51595;24.180;-110.296;2022-12-15T08:42:02;16.70;99.90
63875;DHT22;51595;24.180;-110.296;2022-12-15T08:44:28;16.50;99.90
63875;DHT22;51595;24.180;-110.296;2022-12-15T08:46:55;16.50;99.90
63875;DHT22;51595;24.180;-110.296;2022-12-15T08:49:21;16.50;99.90
63875;DHT22;51595;24.180;-110.296;2022-12-15T08:51:48;16.40;99.90
63875;DHT22;51595;24.180;-110.296;2022-12-15T08:54:15;16.40;99.90
63875;DHT22;51595;24.180;-110.296;2022-12-15T08:56:41;16.50;99.90
63875;DHT22;51595;24.180;-110.296;2022-12-15T08:59:08;16.40;99.90
63875;DHT22;51595;24.180;-110.296;2022-12-15T09:01:34;16.30;99.90
63875;DHT22;51595;24.180;-110.296;2022-12-15T09:04:05;16.40;99.90
63875;DHT22;51595;24.180;-110.296;2022-12-15T09:06:33;16.40;99.90
63875;DHT22;51595;24.180;-110.296;2022-12-15T09:09:03;16.60;99.90
63875;DHT22;51595;24.180;-110.296;2022-12-15T09:11:30;16.70;99.90
63875;DHT22;51595;24.180;-110.296;2022-12-15T09:13:57;16.50;99.90
63875;DHT22;51595;24.180;-110.296;2022-12-15T09:16:26;16.40;99.90
63875;DHT22;51595;24.180;-110.296;2022-12-15T09:18:57;16.40;99.90
63875;DHT22;51595;24.180;-110.296;2022-12-15T09:21:26;16.50;99.90
63875;DHT22;51595;24.180;-110.296;2022-12-15T09:23:55;16.50;99.90
63875;DHT22;51595;24.180;-110.296;2022-12-15T09:26:26;16.30;99.90
63875;DHT22;51595;24.180;-110.296;2022-12-15T09:28:53;16.40;99.90
63875;DHT22;51595;24.180;-110.296;2022-12-15T09:31:28;16.50;99.90
63875;DHT22;51595;24.180;-110.296;2022-12-15T09:33:57;16.50;99.90
63875;DHT22;51595;24.180;-110.296;2022-12-15T09:36:25;16.40;99.90
63875;DHT22;51595;24.180;-110.296;2022-12-15T09:38:52;16.40;99.90
63875;DHT22;51595;24.180;-110.296;2022-12-15T09:41:28;16.40;99.90
63875;DHT22;51595;24.180;-110.296;2022-12-15T09:44:03;16.40;99.90
63875;DHT22;51595;24.180;-110.296;2022-12-15T09:52:11;16.50;99.90
63875;DHT22;51595;24.180;-110.296;2022-12-15T09:54:38;16.50;99.90
63875;DHT22;51595;24.180;-110.296;2022-12-15T10:08:01;16.80;99.90
63875;DHT22;51595;24.180;-110.296;2022-12-15T10:10:39;16.80;99.90
63875;DHT22;51595;24.180;-110.296;2022-12-15T10:19:19;16.70;99.90
63875;DHT22;51595;24.180;-110.296;2022-12-15T10:21:47;16.80;99.90
63875;DHT22;51595;24.180;-110.296;2022-12-15T10:24:20;16.80;99.90
63875;DHT22;51595;24.180;-110.296;2022-12-15T10:26:55;16.80;99.90
63875;DHT22;51595;24.180;-110.296;2022-12-15T10:32:16;16.80;99.90
63875;DHT22;51595;24.180;-110.296;2022-12-15T10:34:43;16.80;99.90
63875;DHT22;51595;24.180;-110.296;2022-12-15T10:37:18;16.80;99.90
63875;DHT22;51595;24.180;-110.296;2022-12-15T10:39:48;16.80;99.90
63875;DHT22;51595;24.180;-110.296;2022-12-15T10:42:21;16.80;99.90
63875;DHT22;51595;24.180;-110.296;2022-12-15T10:44:54;16.80;99.90
63875;DHT22;51595;24.180;-110.296;2022-12-15T10:47:37;16.80;99.90
63875;DHT22;51595;24.180;-110.296;2022-12-15T10:50:33;16.80;99.90
63875;DHT22;51595;24.180;-110.296;2022-12-15T10:53:07;16.90;99.90
63875;DHT22;51595;24.180;-110.296;2022-12-15T10:55:41;16.90;99.90
63875;DHT22;51595;24.180;-110.296;2022-12-15T10:58:21;16.90;99.90
63875;DHT22;51595;24.180;-110.296;2022-12-15T11:01:08;16.90;99.90
63875;DHT22;51595;24.180;-110.296;2022-12-15T11:03:37;16.90;99.90
63875;DHT22;51595;24.180;-110.296;2022-12-15T11:06:13;16.90;99.90
63875;DHT22;51595;24.180;-110.296;2022-12-15T11:08:42;16.90;99.90
63875;DHT22;51595;24.180;-110.296;2022-12-15T11:11:33;16.90;99.90
63875;DHT22;51595;24.180;-110.296;2022-12-15T11:14:24;16.90;99.90
63875;DHT22;51595;24.180;-110.296;2022-12-15T11:16:54;16.90;99.90
63875;DHT22;51595;24.180;-110.296;2022-12-15T11:22:07;16.90;99.90
63875;DHT22;51595;24.180;-110.296;2022-12-15T11:24:44;16.90;99.90
63875;DHT22;51595;24.180;-110.296;2022-12-15T11:27:29;16.90;99.90
63875;DHT22;51595;24.180;-110.296;2022-12-15T11:30:02;16.90;99.90
63875;DHT22;51595;24.180;-110.296;2022-12-15T11:32:32;16.90;99.90
63875;DHT22;51595;24.180;-110.296;2022-12-15T11:35:00;17.00;99.90
63875;DHT22;51595;24.180;-110.296;2022-12-15T11:37:41;16.90;99.90
63875;DHT22;51595;24.180;-110.296;2022-12-15T11:46:22;16.80;99.90
63875;DHT22;51595;24.180;-110.296;2022-12-15T11:57:03;16.90;99.90
63875;DHT22;51595;24.180;-110.296;2022-12-15T11:59:49;17.00;99.90
63875;DHT22;51595;24.180;-110.296;2022-12-15T12:02:48;17.00;99.90
63875;DHT22;51595;24.180;-110.296;2022-12-15T12:05:22;16.90;99.90
63875;DHT22;51595;24.180;-110.296;2022-12-15T12:19:18;16.80;99.90
63875;DHT22;51595;24.180;-110.296;2022-12-15T12:21:50;16.90;99.90
63875;DHT22;51595;24.180;-110.296;2022-12-15T12:24:44;16.70;99.90
63875;DHT22;51595;24.180;-110.296;2022-12-15T12:28:10;16.70;99.90
63875;DHT22;51595;24.180;-110.296;2022-12-15T12:30:32;14.40;99.90
63875;DHT22;51595;24.180;-110.296;2022-12-15T12:36:02;16.90;99.90
63875;DHT22;51595;24.180;-110.296;2022-12-15T12:38:51;16.90;99.90
63875;DHT22;51595;24.180;-110.296;2022-12-15T12:41:47;16.90;99.90
63875;DHT22;51595;24.180;-110.296;2022-12-15T12:46:48;16.90;99.90
63875;DHT22;51595;24.180;-110.296;2022-12-15T12:49:29;16.90;99.90
63875;DHT22;51595;24.180;-110.296;2022-12-15T12:52:00;16.90;99.90
63875;DHT22;51595;24.180;-110.296;2022-12-15T12:54:38;16.90;99.90
63875;DHT22;51595;24.180;-110.296;2022-12-15T12:59:40;16.90;99.90
63875;DHT22;51595;24.180;-110.296;2022-12-15T13:05:01;16.90;99.90
63875;DHT22;51595;24.180;-110.296;2022-12-15T13:07:36;16.80;99.90
63875;DHT22;51595;24.180;-110.296;2022-12-15T13:17:53;16.90;99.90
63875;DHT22;51595;24.180;-110.296;2022-12-15T13:20:34;16.90;99.90
63875;DHT22;51595;24.180;-110.296;2022-12-15T13:41:42;16.90;99.90
63875;DHT22;51595;24.180;-110.296;2022-12-15T13:46:55;16.90;99.90
63875;DHT22;51595;24.180;-110.296;2022-12-15T13:49:54;16.90;99.90
63875;DHT22;51595;24.180;-110.296;2022-12-15T13:52:44;16.90;99.90
63875;DHT22;51595;24.180;-110.296;2022-12-15T13:55:21;16.90;99.90
63875;DHT22;51595;24.180;-110.296;2022-12-15T13:57:59;16.90;99.90
63875;DHT22;51595;24.180;-110.296;2022-12-15T14:00:28;16.90;99.90
63875;DHT22;51595;24.180;-110.296;2022-12-15T14:03:10;16.90;99.90
63875;DHT22;51595;24.180;-110.296;2022-12-15T14:05:38;16.90;99.90
63875;DHT22;51595;24.180;-110.296;2022-12-15T14:08:13;16.90;99.90
63875;DHT22;51595;24.180;-110.296;2022-12-15T14:10:54;16.90;99.90
63875;DHT22;51595;24.180;-110.296;2022-12-15T14:13:34;17.00;99.90
63875;DHT22;51595;24.180;-110.296;2022-12-15T14:18:43;17.00;99.90
63875;DHT22;51595;24.180;-110.296;2022-12-15T14:21:22;17.00;99.90
63875;DHT22;51595;24.180;-110.296;2022-12-15T14:23:48;17.00;99.90
63875;DHT22;51595;24.180;-110.296;2022-12-15T14:26:15;17.00;99.90
63875;DHT22;51595;24.180;-110.296;2022-12-15T14:28:44;17.00;99.90
63875;DHT22;51595;24.180;-110.296;2022-12-15T14:31:16;17.00;99.90
63875;DHT22;51595;24.180;-110.296;2022-12-15T14:33:45;17.10;99.90
63875;DHT22;51595;24.180;-110.296;2022-12-15T14:36:14;17.00;99.90
63875;DHT22;51595;24.180;-110.296;2022-12-15T14:38:50;17.00;99.90
63875;DHT22;51595;24.180;-110.296;2022-12-15T14:41:29;17.00;99.90
63875;DHT22;51595;24.180;-110.296;2022-12-15T14:48:05;14.80;99.90
63875;DHT22;51595;24.180;-110.296;2022-12-15T14:53:05;17.20;99.90
63875;DHT22;51595;24.180;-110.296;2022-12-15T14:55:41;17.20;99.90
63875;DHT22;51595;24.180;-110.296;2022-12-15T15:00:56;17.30;99.90
63875;DHT22;51595;24.180;-110.296;2022-12-15T15:03:37;17.40;99.90
63875;DHT22;51595;24.180;-110.296;2022-12-15T15:09:01;17.50;99.90
63875;DHT22;51595;24.180;-110.296;2022-12-15T15:11:35;17.50;99.90
63875;DHT22;51595;24.180;-110.296;2022-12-15T15:14:09;17.60;99.90
63875;DHT22;51595;24.180;-110.296;2022-12-15T15:16:37;17.70;99.90
63875;DHT22;51595;24.180;-110.296;2022-12-15T15:19:03;17.70;99.90
63875;DHT22;51595;24.180;-110.296;2022-12-15T15:21:34;17.70;99.90
63875;DHT22;51595;24.180;-110.296;2022-12-15T15:26:37;18.00;99.90
63875;DHT22;51595;24.180;-110.296;2022-12-15T15:29:31;17.90;99.90
63875;DHT22;51595;24.180;-110.296;2022-12-15T15:32:17;18.10;99.90
63875;DHT22;51595;24.180;-110.296;2022-12-15T15:34:48;18.10;99.90
63875;DHT22;51595;24.180;-110.296;2022-12-15T15:37:20;18.00;99.90
63875;DHT22;51595;24.180;-110.296;2022-12-15T15:39:49;18.40;99.90
63875;DHT22;51595;24.180;-110.296;2022-12-15T15:42:16;18.20;99.90
63875;DHT22;51595;24.180;-110.296;2022-12-15T15:44:42;18.20;99.90
63875;DHT22;51595;24.180;-110.296;2022-12-15T15:47:27;18.30;99.90
63875;DHT22;51595;24.180;-110.296;2022-12-15T15:49:58;18.40;99.90
63875;DHT22;51595;24.180;-110.296;2022-12-15T15:52:25;18.20;99.90
63875;DHT22;51595;24.180;-110.296;2022-12-15T15:54:53;18.30;99.90
63875;DHT22;51595;24.180;-110.296;2022-12-15T15:57:20;18.50;99.90
63875;DHT22;51595;24.180;-110.296;2022-12-15T15:59:46;18.50;99.90
63875;DHT22;51595;24.180;-110.296;2022-12-15T16:02:13;18.50;99.90
63875;DHT22;51595;24.180;-110.296;2022-12-15T16:04:41;18.50;99.90
63875;DHT22;51595;24.180;-110.296;2022-12-15T16:07:23;18.50;99.90
63875;DHT22;51595;24.180;-110.296;2022-12-15T16:09:52;13.90;99.90
63875;DHT22;51595;24.180;-110.296;2022-12-15T16:12:51;18.30;99.90
63875;DHT22;51595;24.180;-110.296;2022-12-15T16:15:24;18.70;99.90
63875;DHT22;51595;24.180;-110.296;2022-12-15T16:17:51;18.70;99.90
63875;DHT22;51595;24.180;-110.296;2022-12-15T16:20:20;18.70;99.90
63875;DHT22;51595;24.180;-110.296;2022-12-15T16:22:50;18.70;99.90
63875;DHT22;51595;24.180;-110.296;2022-12-15T16:25:32;18.90;99.90
63875;DHT22;51595;24.180;-110.296;2022-12-15T16:28:00;19.20;99.90
63875;DHT22;51595;24.180;-110.296;2022-12-15T16:30:28;19.10;99.90
63875;DHT22;51595;24.180;-110.296;2022-12-15T16:32:55;19.10;99.90
63875;DHT22;51595;24.180;-110.296;2022-12-15T16:35:27;19.20;99.90
63875;DHT22;51595;24.180;-110.296;2022-12-15T16:37:54;19.00;99.90
63875;DHT22;51595;24.180;-110.296;2022-12-15T16:40:23;19.10;99.90
63875;DHT22;51595;24.180;-110.296;2022-12-15T16:42:59;19.20;99.90
63875;DHT22;51595;24.180;-110.296;2022-12-15T16:45:28;19.30;99.90
63875;DHT22;51595;24.180;-110.296;2022-12-15T16:48:07;19.20;99.90
63875;DHT22;51595;24.180;-110.296;2022-12-15T16:50:39;18.20;99.90
63875;DHT22;51595;24.180;-110.296;2022-12-15T16:55:50;19.50;99.90
63875;DHT22;51595;24.180;-110.296;2022-12-15T17:00:44;19.00;99.90
63875;DHT22;51595;24.180;-110.296;2022-12-15T17:03:16;19.30;99.90
63875;DHT22;51595;24.180;-110.296;2022-12-15T17:05:50;19.80;99.90
63875;DHT22;51595;24.180;-110.296;2022-12-15T17:10:55;19.80;99.90
63875;DHT22;51595;24.180;-110.296;2022-12-15T17:13:32;19.80;99.90
63875;DHT22;51595;24.180;-110.296;2022-12-15T17:15:59;20.00;99.90
63875;DHT22;51595;24.180;-110.296;2022-12-15T17:18:28;20.00;99.90
63875;DHT22;51595;24.180;-110.296;2022-12-15T17:21:04;20.00;99.90
63875;DHT22;51595;24.180;-110.296;2022-12-15T17:26:29;19.80;99.90
63875;DHT22;51595;24.180;-110.296;2022-12-15T17:36:05;19.70;99.90
63875;DHT22;51595;24.180;-110.296;2022-12-15T17:38:56;19.70;99.90
63875;DHT22;51595;24.180;-110.296;2022-12-15T17:41:28;19.90;99.90
63875;DHT22;51595;24.180;-110.296;2022-12-15T17:43:55;19.80;99.90
63875;DHT22;51595;24.180;-110.296;2022-12-15T17:46:22;19.70;99.90
63875;DHT22;51595;24.180;-110.296;2022-12-15T17:48:49;19.80;99.90
63875;DHT22;51595;24.180;-110.296;2022-12-15T17:51:17;19.70;99.90
63875;DHT22;51595;24.180;-110.296;2022-12-15T17:53:49;19.80;99.90
63875;DHT22;51595;24.180;-110.296;2022-12-15T17:56:19;19.70;99.90
63875;DHT22;51595;24.180;-110.296;2022-12-15T18:01:13;19.90;99.90
63875;DHT22;51595;24.180;-110.296;2022-12-15T18:03:39;20.00;99.90
63875;DHT22;51595;24.180;-110.296;2022-12-15T18:06:13;20.30;99.90
63875;DHT22;51595;24.180;-110.296;2022-12-15T18:08:43;20.20;99.90
63875;DHT22;51595;24.180;-110.296;2022-12-15T18:11:19;20.10;99.90
63875;DHT22;51595;24.180;-110.296;2022-12-15T18:13:52;20.30;99.90
63875;DHT22;51595;24.180;-110.296;2022-12-15T18:16:30;20.30;99.90
63875;DHT22;51595;24.180;-110.296;2022-12-15T18:19:03;20.40;99.90